Time;durP1;ratioP1;P1;durP2;ratioP2;P2;SDS_P1;SDS_P2;PMS_P1;PMS_P2;Temp;Humidity;BMP_temperature;BMP_pressure;BME280_temperature;BME280_humidity;BME280_pressure;Samples;Min_cycle;Max_cycle;Signal;HPM_P1;HPM_P2
2022/04/02 00:00:26;;;;;;;10.07;7.55;;;1.70;99.90;;;;;;5033229;28;20252;-49
2022/04/02 00:02:51;;;;;;;15.68;8.48;;;1.70;99.90;;;;;;5033482;28;20217;-48
2022/04/02 00:05:17;;;;;;;9.55;6.95;;;1.70;99.90;;;;;;5033567;28;20175;-49
2022/04/02 00:07:42;;;;;;;9.55;7.28;;;1.70;99.90;;;;;;5033116;28;20186;-49
2022/04/02 00:10:08;;;;;;;9.30;8.27;;;1.70;99.90;;;;;;5033082;28;20178;-49
2022/04/02 00:12:34;;;;;;;7.83;5.67;;;1.70;99.90;;;;;;5033051;28;20189;-49
2022/04/02 00:14:59;;;;;;;7.07;5.65;;;1.70;99.90;;;;;;5032982;28;20531;-49
2022/04/02 00:17:25;;;;;;;9.50;7.37;;;1.70;99.90;;;;;;5032990;28;20226;-49
2022/04/02 00:19:52;;;;;;;9.20;6.68;;;1.70;99.90;;;;;;5033149;28;20210;-49
2022/04/02 00:22:18;;;;;;;9.60;6.83;;;1.70;99.90;;;;;;5033378;28;20172;-50
2022/04/02 00:24:43;;;;;;;9.33;6.47;;;1.70;99.90;;;;;;5033149;28;20170;-49
2022/04/02 00:27:09;;;;;;;10.18;7.38;;;1.70;99.90;;;;;;5032723;28;20169;-49
2022/04/02 00:29:38;;;;;;;15.90;7.65;;;1.70;99.90;;;;;;5033029;28;20258;-49
2022/04/02 00:32:07;;;;;;;10.80;6.47;;;1.70;99.90;;;;;;5033005;28;20163;-49
2022/04/02 00:34:32;;;;;;;7.75;6.10;;;1.70;99.90;;;;;;5032758;28;20683;-49
2022/04/02 00:36:58;;;;;;;8.00;5.93;;;1.70;99.90;;;;;;5032577;28;20259;-49
2022/04/02 00:39:23;;;;;;;12.77;6.27;;;1.70;99.90;;;;;;5032616;28;20214;-49
2022/04/02 00:41:49;;;;;;;7.85;5.95;;;1.70;99.90;;;;;;5032918;28;20175;-50
2022/04/02 00:44:20;;;;;;;8.40;5.38;;;1.70;99.90;;;;;;5032592;28;20248;-49
2022/04/02 00:46:45;;;;;;;12.30;6.50;;;1.70;99.90;;;;;;5032565;28;20227;-50
2022/04/02 00:49:13;;;;;;;9.57;5.77;;;1.70;99.90;;;;;;5032728;28;20205;-49
2022/04/02 00:51:42;;;;;;;9.07;5.40;;;1.70;99.90;;;;;;5032305;28;20250;-49
2022/04/02 00:54:14;;;;;;;7.80;5.68;;;1.70;99.90;;;;;;5032385;28;20248;-49
2022/04/02 00:56:40;;;;;;;9.27;5.50;;;1.70;99.90;;;;;;5032432;28;20203;-47
2022/04/02 00:59:08;;;;;;;9.45;5.70;;;1.70;99.90;;;;;;5032253;28;20242;-49
2022/04/02 01:01:35;;;;;;;11.23;5.73;;;1.70;99.90;;;;;;5032548;28;20228;-49
2022/04/02 01:04:01;;;;;;;11.45;6.05;;;1.70;99.90;;;;;;5032232;28;20173;-49
2022/04/02 01:06:27;;;;;;;8.33;5.50;;;1.80;99.90;;;;;;5032453;28;20175;-49
2022/04/02 01:08:54;;;;;;;9.55;5.22;;;1.80;99.90;;;;;;5032194;28;20520;-49
2022/04/02 01:11:19;;;;;;;7.40;4.63;;;1.80;99.90;;;;;;5031805;28;20258;-50
2022/04/02 01:13:45;;;;;;;10.40;6.07;;;1.70;99.90;;;;;;5032128;28;20226;-49
2022/04/02 01:16:10;;;;;;;11.80;6.10;;;1.80;99.90;;;;;;5032172;28;20652;-49
2022/04/02 01:18:36;;;;;;;9.27;5.43;;;1.80;99.90;;;;;;5032028;28;20163;-49
2022/04/02 01:21:02;;;;;;;9.75;5.45;;;1.80;99.90;;;;;;5032083;28;20179;-49
2022/04/02 01:23:29;;;;;;;10.43;6.07;;;1.80;99.90;;;;;;5031995;28;20167;-49
2022/04/02 01:25:59;;;;;;;7.65;4.95;;;1.70;99.90;;;;;;5032275;28;20186;-49
2022/04/02 01:28:25;;;;;;;7.72;5.53;;;1.80;99.90;;;;;;5032254;28;20561;-49
2022/04/02 01:30:51;;;;;;;7.68;5.30;;;1.80;99.90;;;;;;5032229;28;20561;-50
2022/04/02 01:33:17;;;;;;;7.55;4.90;;;1.70;99.90;;;;;;5032221;28;20170;-49
2022/04/02 01:35:43;;;;;;;8.77;5.47;;;1.80;99.90;;;;;;5031936;28;20179;-49
2022/04/02 01:38:08;;;;;;;7.70;4.55;;;1.80;99.90;;;;;;5031929;28;20171;-49
2022/04/02 01:40:34;;;;;;;6.83;4.10;;;1.70;99.90;;;;;;5031884;28;20210;-49
2022/04/02 01:42:59;;;;;;;10.45;4.22;;;1.70;99.90;;;;;;5030590;28;20193;-49
2022/04/02 01:45:25;;;;;;;4.87;4.07;;;1.70;99.90;;;;;;5031965;28;20167;-48
2022/04/02 01:47:51;;;;;;;7.57;5.13;;;1.70;99.90;;;;;;5032003;28;20219;-49
2022/04/02 01:50:17;;;;;;;7.00;4.53;;;1.70;99.90;;;;;;5032319;28;20305;-49
2022/04/02 01:52:43;;;;;;;7.47;4.60;;;1.70;99.90;;;;;;5032086;28;20262;-49
2022/04/02 01:55:09;;;;;;;6.77;4.23;;;1.60;99.90;;;;;;5031751;28;20168;-49
2022/04/02 01:57:35;;;;;;;7.22;4.05;;;1.70;99.90;;;;;;5031965;28;20179;-48
2022/04/02 02:00:02;;;;;;;8.25;4.05;;;1.70;99.90;;;;;;5031612;28;20294;-49
2022/04/02 02:02:27;;;;;;;8.82;4.15;;;1.60;99.90;;;;;;5031761;28;20175;-49
2022/04/02 02:04:53;;;;;;;8.93;5.32;;;1.60;99.90;;;;;;5031751;28;20176;-48
2022/04/02 02:07:19;;;;;;;8.00;4.70;;;1.60;99.90;;;;;;5031882;28;20168;-49
2022/04/02 02:09:44;;;;;;;14.68;6.13;;;1.70;99.90;;;;;;5032084;28;20181;-49
2022/04/02 02:12:10;;;;;;;7.80;4.43;;;1.80;99.90;;;;;;5031594;28;20254;-49
2022/04/02 02:14:36;;;;;;;6.87;4.33;;;1.70;99.90;;;;;;5031628;28;20639;-49
2022/04/02 02:17:01;;;;;;;6.17;4.17;;;1.70;99.90;;;;;;5031852;28;20160;-49
2022/04/02 02:19:27;;;;;;;5.80;4.10;;;1.70;99.90;;;;;;5031543;28;20195;-49
2022/04/02 02:21:52;;;;;;;7.43;3.47;;;1.70;99.90;;;;;;5032991;28;20163;-48
2022/04/02 02:24:18;;;;;;;7.50;4.27;;;1.60;99.90;;;;;;5035444;28;20179;-49
2022/04/02 02:26:44;;;;;;;5.20;3.70;;;1.60;99.90;;;;;;5035285;28;20167;-50
2022/04/02 02:29:10;;;;;;;6.60;4.30;;;1.60;99.90;;;;;;5035045;28;20172;-50
2022/04/02 02:31:35;;;;;;;7.45;4.47;;;1.60;99.90;;;;;;5035013;28;20180;-50
2022/04/02 02:36:46;;;;;;;6.63;3.37;;;1.70;99.90;;;;;;5035146;28;20221;-50
2022/04/02 02:39:12;;;;;;;5.90;3.87;;;1.70;99.90;;;;;;5034723;28;20237;-50
2022/04/02 02:41:37;;;;;;;2.78;2.42;;;1.70;99.90;;;;;;5033508;28;20171;-49
2022/04/02 02:44:04;;;;;;;5.43;3.50;;;1.60;99.90;;;;;;5033563;28;20175;-48
2022/04/02 02:46:29;;;;;;;6.50;3.43;;;1.70;99.90;;;;;;5034767;28;20219;-50
2022/04/02 02:48:55;;;;;;;7.60;3.38;;;1.70;99.90;;;;;;5034851;28;20186;-50
2022/04/02 02:51:21;;;;;;;4.67;2.73;;;1.80;99.90;;;;;;5034885;28;20214;-50
2022/04/02 02:53:46;;;;;;;5.60;4.00;;;1.70;99.90;;;;;;5035004;28;20224;-50
2022/04/02 02:56:12;;;;;;;11.93;3.80;;;1.80;99.90;;;;;;5034844;28;20178;-49
2022/04/02 02:58:37;;;;;;;7.75;3.47;;;1.90;99.90;;;;;;5034461;28;20258;-49
2022/04/02 03:01:04;;;;;;;3.83;2.93;;;1.90;99.90;;;;;;5034537;28;20182;-47
2022/04/02 03:03:31;;;;;;;10.48;5.03;;;1.90;99.90;;;;;;5034645;28;20179;-49
2022/04/02 03:05:57;;;;;;;5.43;3.55;;;1.80;99.90;;;;;;5034436;28;20525;-49
2022/04/02 03:08:22;;;;;;;5.30;3.60;;;1.90;99.90;;;;;;5034338;28;20160;-48
2022/04/02 03:10:48;;;;;;;6.73;3.73;;;1.90;99.90;;;;;;5034524;28;20649;-49
2022/04/02 03:13:14;;;;;;;6.53;2.57;;;1.80;99.90;;;;;;5034242;28;20167;-48
2022/04/02 03:15:40;;;;;;;5.30;2.97;;;1.80;99.90;;;;;;5034432;28;20265;-49
2022/04/02 03:18:07;;;;;;;6.10;3.37;;;1.80;99.90;;;;;;5034181;28;20638;-49
2022/04/02 03:20:34;;;;;;;7.00;2.53;;;1.80;99.90;;;;;;5034269;28;20213;-49
2022/04/02 03:23:00;;;;;;;6.50;3.03;;;1.90;99.90;;;;;;5034058;28;20162;-50
2022/04/02 03:25:26;;;;;;;4.63;2.73;;;1.80;99.90;;;;;;5033970;28;20171;-49
2022/04/02 03:27:51;;;;;;;4.57;3.53;;;1.80;99.90;;;;;;5033960;28;20528;-47
2022/04/02 03:30:21;;;;;;;6.33;3.37;;;1.90;99.90;;;;;;5034293;28;20211;-47
2022/04/02 03:32:48;;;;;;;9.13;2.67;;;1.90;99.90;;;;;;5033755;28;20526;-48
2022/04/02 03:35:14;;;;;;;4.53;3.20;;;1.90;99.90;;;;;;5033742;28;20175;-48
2022/04/02 03:37:44;;;;;;;5.67;2.90;;;2.00;99.90;;;;;;5034039;28;20175;-48
2022/04/02 03:40:14;;;;;;;5.67;3.27;;;2.00;99.90;;;;;;5033885;28;20221;-47
2022/04/02 03:42:41;;;;;;;2.97;2.57;;;2.00;99.90;;;;;;5033663;28;20662;-48
2022/04/02 03:45:08;;;;;;;3.83;2.50;;;2.00;99.90;;;;;;5033738;28;20163;-48
2022/04/02 03:47:34;;;;;;;8.27;3.20;;;2.00;99.90;;;;;;5033711;28;20217;-47
2022/04/02 03:49:59;;;;;;;4.05;2.85;;;2.00;99.90;;;;;;5033524;28;20171;-47
2022/04/02 03:52:26;;;;;;;3.03;2.30;;;2.00;99.90;;;;;;5033563;28;20249;-49
2022/04/02 03:54:51;;;;;;;7.50;2.60;;;2.00;99.90;;;;;;5033460;28;20517;-48
2022/04/02 03:57:17;;;;;;;6.03;3.30;;;2.00;99.90;;;;;;5033733;28;20262;-50
2022/04/02 03:59:43;;;;;;;5.00;2.97;;;2.00;99.90;;;;;;5033301;28;20287;-50
2022/04/02 04:02:10;;;;;;;5.73;3.23;;;2.10;99.90;;;;;;5033570;28;20174;-49
2022/04/02 04:04:37;;;;;;;7.47;3.20;;;2.00;99.90;;;;;;5033544;28;20234;-50
2022/04/02 04:07:04;;;;;;;4.57;2.53;;;2.00;99.90;;;;;;5033177;28;20168;-49
2022/04/02 04:09:30;;;;;;;8.30;2.88;;;2.00;99.90;;;;;;5033395;28;20634;-49
2022/04/02 04:11:55;;;;;;;3.30;1.88;;;2.00;99.90;;;;;;5033110;28;20194;-49
2022/04/02 04:14:24;;;;;;;5.83;2.87;;;1.90;99.90;;;;;;5033422;28;20254;-50
2022/04/02 04:16:50;;;;;;;5.20;2.80;;;2.00;99.90;;;;;;5033549;28;20171;-49
2022/04/02 04:19:16;;;;;;;2.13;1.50;;;2.00;99.90;;;;;;5033196;28;20209;-50
2022/04/02 04:21:43;;;;;;;6.70;2.37;;;2.00;99.90;;;;;;5032893;28;20186;-49
2022/04/02 04:24:09;;;;;;;7.22;3.00;;;2.00;99.90;;;;;;5032868;28;20174;-49
2022/04/02 04:26:35;;;;;;;6.30;3.03;;;2.00;99.90;;;;;;5033196;28;20212;-49
2022/04/02 04:29:01;;;;;;;4.03;2.67;;;2.00;99.90;;;;;;5032782;28;20168;-49
2022/04/02 04:31:26;;;;;;;4.37;2.20;;;1.90;99.90;;;;;;5031518;28;20185;-47
2022/04/02 04:33:52;;;;;;;2.47;2.20;;;2.00;99.90;;;;;;5032742;28;20226;-47
2022/04/02 04:36:18;;;;;;;2.92;2.28;;;1.90;99.90;;;;;;5032925;28;20206;-48
2022/04/02 04:38:45;;;;;;;4.50;1.93;;;1.90;99.90;;;;;;5032600;28;20175;-47
2022/04/02 04:41:11;;;;;;;4.47;2.27;;;1.90;99.90;;;;;;5031336;28;20186;-47
2022/04/02 04:43:37;;;;;;;1.60;1.33;;;1.90;99.90;;;;;;5032644;28;20243;-47
2022/04/02 04:46:03;;;;;;;8.10;2.13;;;1.80;99.90;;;;;;5031691;28;20641;-47
2022/04/02 04:48:29;;;;;;;4.60;2.50;;;1.80;99.90;;;;;;5032457;28;20179;-47
2022/04/02 04:50:55;;;;;;;3.05;2.15;;;1.90;99.90;;;;;;5032489;28;20172;-47
2022/04/02 04:53:21;;;;;;;3.10;1.90;;;1.90;99.90;;;;;;5032705;28;20168;-47
2022/04/02 04:55:46;;;;;;;3.97;2.30;;;1.90;99.90;;;;;;5032661;28;20185;-48
2022/04/02 04:58:12;;;;;;;2.23;2.03;;;1.90;99.90;;;;;;5032293;28;20167;-47
2022/04/02 05:00:39;;;;;;;6.73;2.53;;;1.90;99.90;;;;;;5032219;28;20226;-47
2022/04/02 05:03:05;;;;;;;2.73;1.77;;;1.90;99.90;;;;;;5032269;28;20170;-48
2022/04/02 05:05:32;;;;;;;4.57;2.60;;;1.90;99.90;;;;;;5032231;28;20183;-49
2022/04/02 05:07:59;;;;;;;3.20;2.27;;;1.90;99.90;;;;;;5031927;28;20241;-48
2022/04/02 05:10:25;;;;;;;4.75;2.10;;;1.90;99.90;;;;;;5032402;28;20188;-48
2022/04/02 05:12:51;;;;;;;3.22;2.35;;;1.90;99.90;;;;;;5032575;28;20190;-48
2022/04/02 05:15:17;;;;;;;3.30;2.20;;;1.90;99.90;;;;;;5032484;28;20500;-48
2022/04/02 05:17:43;;;;;;;5.40;2.30;;;1.90;99.90;;;;;;5032362;28;20261;-48
2022/04/02 05:20:11;;;;;;;2.03;1.83;;;1.80;99.90;;;;;;5031957;28;20689;-49
2022/04/02 05:22:37;;;;;;;3.60;1.77;;;1.80;99.90;;;;;;5032286;28;20178;-48
2022/04/02 05:25:03;;;;;;;3.20;1.83;;;1.70;99.90;;;;;;5032167;28;20266;-48
2022/04/02 05:27:29;;;;;;;3.57;2.03;;;1.70;99.90;;;;;;5032271;28;20507;-47
2022/04/02 05:29:55;;;;;;;2.70;1.97;;;1.70;99.90;;;;;;5031972;28;20174;-47
2022/04/02 05:32:21;;;;;;;4.75;2.28;;;1.80;99.90;;;;;;5032195;28;20171;-48
2022/04/02 05:34:46;;;;;;;3.47;1.80;;;1.80;99.90;;;;;;5032364;28;20604;-48
2022/04/02 05:37:13;;;;;;;2.03;1.83;;;1.80;99.90;;;;;;5031874;28;20650;-47
2022/04/02 05:39:41;;;;;;;3.10;2.00;;;1.80;99.90;;;;;;5031844;28;20669;-48
2022/04/02 05:42:07;;;;;;;2.33;1.80;;;1.80;99.90;;;;;;5031916;28;20171;-48
2022/04/02 05:44:33;;;;;;;3.30;2.30;;;1.80;99.90;;;;;;5031886;28;20163;-47
2022/04/02 05:46:59;;;;;;;2.57;2.37;;;1.90;99.90;;;;;;5031504;28;20226;-49
2022/04/02 05:49:24;;;;;;;4.03;2.37;;;1.90;99.90;;;;;;5031699;28;20167;-48
2022/04/02 05:51:50;;;;;;;5.25;2.85;;;1.90;99.90;;;;;;5031996;28;20187;-48
2022/04/02 05:54:16;;;;;;;2.93;2.53;;;2.00;99.90;;;;;;5032108;28;20623;-48
2022/04/02 05:56:42;;;;;;;3.23;2.67;;;2.10;99.90;;;;;;5033107;28;20179;-48
2022/04/02 05:59:08;;;;;;;3.15;2.47;;;2.00;99.90;;;;;;5035479;28;20211;-48
2022/04/02 06:01:37;;;;;;;4.43;2.10;;;2.00;99.90;;;;;;5035608;28;20160;-48
2022/04/02 06:04:03;;;;;;;2.75;2.33;;;2.00;99.90;;;;;;5035506;28;20230;-48
2022/04/02 06:06:30;;;;;;;2.17;1.90;;;2.00;99.90;;;;;;5035440;28;20182;-48
2022/04/02 06:08:56;;;;;;;2.70;2.33;;;2.00;99.90;;;;;;5035728;28;20178;-48
2022/04/02 06:11:22;;;;;;;4.85;2.72;;;2.00;99.90;;;;;;5035667;28;20203;-48
2022/04/02 06:13:47;;;;;;;4.82;3.10;;;2.00;99.90;;;;;;5035410;28;20206;-48
2022/04/02 06:16:13;;;;;;;3.20;2.40;;;2.00;99.90;;;;;;5034010;28;20182;-49
2022/04/02 06:18:38;;;;;;;3.47;2.77;;;2.10;99.90;;;;;;5035243;28;20171;-48
2022/04/02 06:21:04;;;;;;;4.20;2.80;;;2.10;99.90;;;;;;5035483;28;20171;-48
2022/04/02 06:23:35;;;;;;;4.17;2.20;;;2.10;99.90;;;;;;5035738;28;20208;-47
2022/04/02 06:26:01;;;;;;;5.60;2.77;;;2.00;99.90;;;;;;5035037;28;20174;-48
2022/04/02 06:28:26;;;;;;;2.10;1.70;;;2.00;99.90;;;;;;5035082;28;20639;-48
2022/04/02 06:30:52;;;;;;;3.93;2.27;;;2.00;99.90;;;;;;5035385;28;20171;-48
2022/04/02 06:33:17;;;;;;;3.95;1.85;;;2.10;99.90;;;;;;5035269;28;20171;-47
2022/04/02 06:35:43;;;;;;;3.10;1.93;;;2.00;99.90;;;;;;5034863;28;20172;-48
2022/04/02 06:38:08;;;;;;;4.17;2.50;;;2.00;99.90;;;;;;5034688;28;20167;-48
2022/04/02 06:40:34;;;;;;;2.50;1.90;;;2.10;99.90;;;;;;5034630;28;20268;-47
2022/04/02 06:43:01;;;;;;;7.55;2.72;;;2.20;99.90;;;;;;5034850;28;20185;-47
2022/04/02 06:45:26;;;;;;;4.00;2.30;;;2.20;99.90;;;;;;5035021;28;20190;-47
2022/04/02 06:47:52;;;;;;;5.47;2.08;;;2.20;99.90;;;;;;5034381;28;20215;-48
2022/04/02 06:50:18;;;;;;;2.90;2.40;;;2.20;99.90;;;;;;5035114;28;20171;-49
2022/04/02 06:52:44;;;;;;;4.25;2.15;;;2.20;99.90;;;;;;5034600;28;20168;-48
2022/04/02 06:55:11;;;;;;;4.13;2.83;;;2.20;99.90;;;;;;5034530;28;20213;-49
2022/04/02 06:58:03;;;;;;;4.43;3.20;;;2.20;99.90;;;;;;5034477;28;20187;-48
2022/04/02 07:00:29;;;;;;;2.80;2.25;;;2.30;99.90;;;;;;5033254;28;20269;-49
2022/04/02 07:02:55;;;;;;;3.72;1.63;;;2.30;99.90;;;;;;5034017;28;20167;-48
2022/04/02 07:05:21;;;;;;;8.57;2.38;;;2.30;99.90;;;;;;5034473;28;20160;-48
2022/04/02 07:07:47;;;;;;;3.08;2.50;;;2.20;99.90;;;;;;5032855;28;20229;-49
2022/04/02 07:10:13;;;;;;;5.05;2.78;;;2.20;99.90;;;;;;5034291;28;20167;-48
2022/04/02 07:12:39;;;;;;;5.07;2.88;;;2.30;99.90;;;;;;5034179;28;20168;-48
2022/04/02 07:15:06;;;;;;;4.97;2.97;;;2.30;99.90;;;;;;5034309;28;20646;-48
2022/04/02 07:17:31;;;;;;;4.32;2.47;;;2.30;99.90;;;;;;5034165;28;20166;-48
2022/04/02 07:19:59;;;;;;;3.72;2.53;;;2.40;99.90;;;;;;5033830;28;20238;-48
2022/04/02 07:22:25;;;;;;;6.97;2.63;;;2.40;99.90;;;;;;5033974;28;20643;-48
2022/04/02 07:24:52;;;;;;;7.57;3.53;;;2.50;99.90;;;;;;5034299;28;20168;-49
2022/04/02 07:27:27;;;;;;;5.55;2.42;;;5.20;99.90;;;;;;5034314;28;20178;-49
2022/04/02 07:29:54;;;;;;;2.78;2.22;;;2.60;99.90;;;;;;5034202;28;20257;-48
2022/04/02 07:32:20;;;;;;;3.53;2.50;;;2.60;99.90;;;;;;5034165;28;20164;-48
2022/04/02 07:34:46;;;;;;;3.78;2.75;;;2.70;99.90;;;;;;5033522;28;20222;-48
2022/04/02 07:37:20;;;;;;;3.78;2.45;;;2.70;99.90;;;;;;5033531;28;20266;-48
2022/04/02 07:40:15;;;;;;;3.08;2.25;;;2.70;99.90;;;;;;5033458;28;20206;-48
2022/04/02 07:42:58;;;;;;;4.28;2.38;;;2.80;99.90;;;;;;5033892;28;20250;-52
2022/04/02 07:45:40;;;;;;;4.80;2.90;;;2.80;99.90;;;;;;5033578;28;20811;-49
2022/04/02 07:48:08;;;;;;;3.28;2.38;;;2.80;99.90;;;;;;5033359;28;20230;-49
2022/04/02 07:50:35;;;;;;;5.00;2.70;;;3.00;99.90;;;;;;5033673;28;20194;-49
2022/04/02 07:53:06;;;;;;;4.88;2.50;;;3.00;99.90;;;;;;5033460;28;20172;-49
2022/04/02 07:55:35;;;;;;;4.03;2.22;;;3.00;99.90;;;;;;5033670;28;20172;-49
2022/04/02 07:58:02;;;;;;;4.68;1.92;;;2.90;99.90;;;;;;5033380;28;20167;-49
2022/04/02 08:00:31;;;;;;;5.07;2.35;;;2.90;99.90;;;;;;5033039;28;20219;-49
2022/04/02 08:02:57;;;;;;;2.35;2.10;;;2.90;99.90;;;;;;5031874;28;20171;-49
2022/04/02 08:05:23;;;;;;;5.15;1.88;;;2.90;99.90;;;;;;5032994;28;20163;-48
2022/04/02 08:07:50;;;;;;;4.25;2.20;;;2.90;99.90;;;;;;5033244;28;20178;-49
2022/04/02 08:10:17;;;;;;;2.22;1.88;;;2.90;99.90;;;;;;5033087;28;20168;-49
2022/04/02 08:12:43;;;;;;;4.35;2.38;;;2.90;99.90;;;;;;5033147;28;20163;-49
2022/04/02 08:15:16;;;;;;;5.60;2.13;;;2.90;99.90;;;;;;5033221;28;20631;-49
2022/04/02 08:17:43;;;;;;;3.45;2.42;;;3.10;99.90;;;;;;5033009;28;20176;-48
2022/04/02 08:20:10;;;;;;;3.58;2.42;;;3.20;99.90;;;;;;5032564;28;20565;-48
2022/04/02 08:22:36;;;;;;;1.95;1.67;;;3.20;99.90;;;;;;5033096;28;20167;-49
2022/04/02 08:25:03;;;;;;;3.70;2.25;;;3.20;99.90;;;;;;5032609;28;20643;-49
2022/04/02 08:27:38;;;;;;;4.20;2.35;;;3.20;99.90;;;;;;5032835;28;20254;-49
2022/04/02 08:30:04;;;;;;;3.03;2.25;;;3.30;99.90;;;;;;5033057;28;20559;-48
2022/04/02 08:32:47;;;;;;;3.38;1.90;;;3.50;99.90;;;;;;5033019;28;20712;-49
2022/04/02 08:35:15;;;;;;;5.88;2.55;;;3.50;99.90;;;;;;5032644;28;20167;-48
2022/04/02 08:38:03;;;;;;;3.90;2.20;;;3.40;99.90;;;;;;5031901;28;20170;-49
2022/04/02 08:40:54;;;;;;;3.30;2.22;;;3.50;99.90;;;;;;5032606;28;20265;-49
2022/04/02 08:43:59;;;;;;;5.75;2.15;;;3.40;99.90;;;;;;5032999;28;20160;-49
2022/04/02 08:46:33;;;;;;;2.70;2.25;;;3.40;99.90;;;;;;5032434;28;20203;-48
2022/04/02 08:49:09;;;;;;;2.97;2.20;;;3.50;99.90;;;;;;5032581;28;20170;-48
2022/04/02 08:51:42;;;;;;;2.22;1.92;;;3.60;99.90;;;;;;5032369;28;20529;-48
2022/04/02 08:54:23;;;;;;;4.07;2.58;;;3.70;99.90;;;;;;5032539;28;20215;-48
2022/04/02 08:56:59;;;;;;;3.72;2.38;;;3.80;99.90;;;;;;5032804;28;20176;-48
2022/04/02 08:59:37;;;;;;;4.97;2.28;;;3.90;99.90;;;;;;5032315;28;20203;-48
2022/04/02 09:02:41;;;;;;;2.85;2.22;;;3.70;99.90;;;;;;5032188;28;20171;-48
2022/04/02 09:05:44;;;;;;;3.70;1.90;;;3.70;99.90;;;;;;5032298;28;20262;-49
2022/04/02 09:08:18;;;;;;;4.72;2.80;;;4.00;99.90;;;;;;5032234;28;20669;-49
2022/04/02 09:11:04;;;;;;;10.18;2.30;;;4.00;99.90;;;;;;5032266;28;20163;-49
2022/04/02 09:14:20;;;;;;;4.03;1.92;;;4.10;99.90;;;;;;5032189;28;20530;-49
2022/04/02 09:16:58;;;;;;;5.22;2.40;;;4.10;99.90;;;;;;5030011;28;20703;-49
2022/04/02 09:19:36;;;;;;;2.67;1.92;;;4.20;99.90;;;;;;5031651;28;20218;-48
2022/04/02 09:22:13;;;;;;;2.28;2.08;;;4.30;99.90;;;;;;5032091;28;20646;-49
2022/04/02 09:25:00;;;;;;;4.43;2.42;;;4.40;99.90;;;;;;5032323;28;20193;-49
2022/04/02 09:28:04;;;;;;;7.25;2.67;;;4.40;99.90;;;;;;5032119;28;20603;-49
2022/04/02 09:30:50;;;;;;;2.40;2.20;;;4.30;99.90;;;;;;5010225;28;20175;-49
2022/04/02 09:33:52;;;;;;;3.78;2.85;;;4.60;99.90;;;;;;5014255;28;20256;-49
2022/04/02 09:36:59;;;;;;;3.60;2.15;;;4.70;99.90;;;;;;5033178;28;20265;-48
2022/04/02 09:39:52;;;;;;;2.75;2.38;;;4.40;99.90;;;;;;5036216;28;20198;-49
2022/04/02 09:42:39;;;;;;;5.28;2.67;;;4.60;99.90;;;;;;5036129;28;20718;-49
2022/04/02 09:45:06;;;;;;;3.95;1.80;;;4.70;99.90;;;;;;5035913;28;20657;-48
2022/04/02 09:47:56;;;;;;;6.22;2.40;;;4.60;99.90;;;;;;5035666;28;20284;-48
2022/04/02 09:50:24;;;;;;;4.60;2.63;;;4.50;99.90;;;;;;5035650;28;20166;-48
2022/04/02 09:52:56;;;;;;;3.30;2.20;;;4.60;99.90;;;;;;5036051;28;20222;-48
2022/04/02 09:55:30;;;;;;;3.08;2.08;;;4.50;99.90;;;;;;5035767;28;20212;-48
2022/04/02 09:58:29;;;;;;;3.42;2.50;;;4.40;99.90;;;;;;5035892;28;20179;-48
2022/04/02 10:01:06;;;;;;;2.30;2.00;;;4.40;99.90;;;;;;5035462;28;20594;-48
2022/04/02 10:03:32;;;;;;;3.28;2.83;;;4.40;99.90;;;;;;5035596;28;20163;-48
2022/04/02 10:06:14;;;;;;;4.97;2.90;;;4.50;99.90;;;;;;5034023;28;20635;-49
2022/04/02 10:08:58;;;;;;;4.43;2.45;;;4.40;99.90;;;;;;5035364;28;20159;-48
2022/04/02 10:11:28;;;;;;;2.88;1.83;;;4.30;99.90;;;;;;5035507;28;20163;-48
2022/04/02 10:13:59;;;;;;;4.45;2.60;;;4.30;99.90;;;;;;5034136;28;20164;-48
2022/04/02 10:16:26;;;;;;;5.32;2.70;;;4.30;99.90;;;;;;5035313;28;20172;-48
2022/04/02 10:18:59;;;;;;;3.72;2.35;;;4.30;99.90;;;;;;5035741;28;20221;-48
2022/04/02 10:21:27;;;;;;;3.85;3.00;;;4.20;99.90;;;;;;5035306;28;20171;-48
2022/04/02 10:24:23;;;;;;;2.40;1.92;;;4.20;99.90;;;;;;5035539;28;20588;-48
2022/04/02 10:26:54;;;;;;;4.00;2.25;;;4.20;99.90;;;;;;5035429;28;20168;-48
2022/04/02 10:29:30;;;;;;;3.63;2.58;;;4.20;99.90;;;;;;5035603;28;20175;-49
2022/04/02 10:32:20;;;;;;;3.22;2.00;;;4.30;99.90;;;;;;5033783;28;20170;-48
2022/04/02 10:34:58;;;;;;;3.38;3.08;;;4.40;99.90;;;;;;5034998;28;20167;-48
2022/04/02 10:37:30;;;;;;;4.35;3.10;;;4.50;99.90;;;;;;5035204;28;20179;-48
2022/04/02 10:40:04;;;;;;;6.55;2.95;;;4.70;99.90;;;;;;5034770;28;20576;-49
2022/04/02 10:42:34;;;;;;;5.35;2.47;;;4.90;99.90;;;;;;5033708;28;20572;-48
2022/04/02 10:45:07;;;;;;;2.65;1.90;;;4.90;99.90;;;;;;5034861;28;20635;-48
2022/04/02 10:47:41;;;;;;;3.55;2.40;;;5.10;99.90;;;;;;5034656;28;20627;-48
2022/04/02 10:50:08;;;;;;;4.57;2.58;;;5.00;99.90;;;;;;5034730;28;20160;-48
2022/04/02 10:52:35;;;;;;;3.85;2.50;;;4.90;99.90;;;;;;5034922;28;20202;-48
2022/04/02 10:55:02;;;;;;;2.90;2.30;;;4.90;99.90;;;;;;5034576;28;20175;-48
2022/04/02 10:57:29;;;;;;;4.03;2.35;;;4.90;99.90;;;;;;5034631;28;20535;-49
2022/04/02 11:00:01;;;;;;;4.65;2.40;;;5.30;99.90;;;;;;5034433;28;20215;-48
2022/04/02 11:02:40;;;;;;;2.70;2.30;;;5.50;99.90;;;;;;5034671;28;20175;-48
2022/04/02 11:05:07;;;;;;;4.38;2.83;;;5.40;99.90;;;;;;5034675;28;20199;-48
2022/04/02 11:07:40;;;;;;;4.10;2.15;;;5.60;99.90;;;;;;5034410;28;20258;-48
2022/04/02 11:10:07;;;;;;;6.38;2.63;;;5.60;99.90;;;;;;5034350;28;20167;-48
2022/04/02 11:12:41;;;;;;;3.95;2.60;;;5.60;99.90;;;;;;5034363;28;20623;-48
2022/04/02 11:15:09;;;;;;;3.55;2.00;;;5.40;99.90;;;;;;5034463;28;20588;-49
2022/04/02 11:17:38;;;;;;;4.20;2.90;;;5.30;99.90;;;;;;5034186;28;20163;-48
2022/04/02 11:20:12;;;;;;;5.07;2.30;;;5.50;99.90;;;;;;5034384;28;20261;-48
2022/04/02 11:22:51;;;;;;;4.68;2.92;;;5.70;99.90;;;;;;5034350;28;20538;-49
2022/04/02 11:25:19;;;;;;;4.25;2.30;;;6.00;99.90;;;;;;5034063;28;20536;-48
2022/04/02 11:27:48;;;;;;;4.82;2.88;;;6.00;99.90;;;;;;5033967;28;20171;-48
2022/04/02 11:30:16;;;;;;;3.22;2.35;;;6.20;99.90;;;;;;5033944;28;20160;-48
2022/04/02 11:32:46;;;;;;;5.00;2.60;;;6.20;99.90;;;;;;5033758;28;20532;-49
2022/04/02 11:35:23;;;;;;;3.22;2.30;;;6.00;99.90;;;;;;5033906;28;20644;-49
2022/04/02 11:38:03;;;;;;;3.67;2.53;;;6.30;99.90;;;;;;5034049;28;20171;-49
2022/04/02 11:40:30;;;;;;;4.07;2.95;;;6.00;99.90;;;;;;5033962;28;20218;-48
2022/04/02 11:43:02;;;;;;;2.55;2.33;;;6.10;99.90;;;;;;5033708;28;20170;-49
2022/04/02 11:45:29;;;;;;;3.15;2.72;;;6.30;99.90;;;;;;5033914;28;20183;-48
2022/04/02 11:48:07;;;;;;;4.88;2.97;;;6.30;99.90;;;;;;5033486;28;20214;-48
2022/04/02 11:50:34;;;;;;;8.00;3.70;;;6.30;99.90;;;;;;5033579;28;20225;-48
2022/04/02 11:53:00;;;;;;;4.65;3.17;;;6.40;99.90;;;;;;5032281;28;20278;-49
2022/04/02 11:55:26;;;;;;;3.33;3.03;;;6.30;99.90;;;;;;5032837;28;20659;-48
2022/04/02 11:58:02;;;;;;;6.05;3.70;;;5.90;99.90;;;;;;5032025;28;20181;-48
2022/04/02 12:00:29;;;;;;;4.05;3.53;;;5.70;99.90;;;;;;5032663;28;20643;-48
2022/04/02 12:02:55;;;;;;;8.35;3.60;;;5.70;99.90;;;;;;5033374;28;20187;-48
2022/04/02 12:05:21;;;;;;;4.88;2.78;;;5.60;99.90;;;;;;5033842;28;20175;-49
2022/04/02 12:07:51;;;;;;;5.82;3.33;;;5.50;99.90;;;;;;5033825;28;20583;-49
2022/04/02 12:10:24;;;;;;;3.78;2.75;;;5.50;99.90;;;;;;5033491;28;20171;-48
2022/04/02 12:12:51;;;;;;;4.22;2.90;;;5.10;99.90;;;;;;5033433;28;20171;-48
2022/04/02 12:15:17;;;;;;;4.68;2.97;;;5.00;99.90;;;;;;5033658;28;20175;-49
2022/04/02 12:17:46;;;;;;;7.90;2.85;;;5.10;99.90;;;;;;5033180;28;20175;-49
2022/04/02 12:20:26;;;;;;;3.75;2.58;;;5.10;99.90;;;;;;5032885;28;20198;-49
2022/04/02 12:23:14;;;;;;;5.75;2.95;;;5.20;99.90;;;;;;5033619;28;20210;-48
2022/04/02 12:25:44;;;;;;;3.72;2.78;;;5.30;99.90;;;;;;5032886;28;20177;-49
2022/04/02 12:28:20;;;;;;;3.25;2.70;;;5.60;99.90;;;;;;5033065;28;20167;-48
2022/04/02 12:30:48;;;;;;;12.50;6.13;;;5.70;99.90;;;;;;5031781;28;20175;-48
2022/04/02 12:33:25;;;;;;;4.85;3.10;;;5.80;99.90;;;;;;5031986;28;20194;-48
2022/04/02 12:35:59;;;;;;;8.10;3.88;;;5.90;99.90;;;;;;5032863;28;20268;-48
2022/04/02 12:38:34;;;;;;;4.57;3.30;;;5.90;99.90;;;;;;5030976;28;20730;-49
2022/04/02 12:41:02;;;;;;;6.15;3.42;;;5.90;99.90;;;;;;5032251;28;20285;-48
2022/04/02 12:43:33;;;;;;;4.95;3.70;;;5.80;99.90;;;;;;5031436;28;20190;-49
2022/04/02 12:46:00;;;;;;;4.00;3.25;;;5.80;99.90;;;;;;5032332;28;20175;-48
2022/04/02 12:48:41;;;;;;;8.65;4.13;;;5.60;99.90;;;;;;5032409;28;20215;-49
2022/04/02 12:51:12;;;;;;;4.57;3.40;;;5.50;99.90;;;;;;5032375;28;20178;-49
2022/04/02 12:53:40;;;;;;;3.58;3.22;;;5.60;99.90;;;;;;5047586;28;20639;-48
2022/04/02 12:56:08;;;;;;;5.18;3.17;;;5.80;99.90;;;;;;5032462;28;20168;-49
2022/04/02 12:58:39;;;;;;;3.95;3.47;;;6.00;99.90;;;;;;5031184;28;20195;-48
2022/04/02 13:01:10;;;;;;;5.03;3.38;;;6.00;99.90;;;;;;5032333;28;20199;-48
2022/04/02 13:03:54;;;;;;;4.18;3.38;;;6.10;99.90;;;;;;5032350;28;20174;-49
2022/04/02 13:06:24;;;;;;;7.47;3.30;;;6.20;99.90;;;;;;5031685;28;20566;-48
2022/04/02 13:08:57;;;;;;;3.78;3.38;;;6.40;99.90;;;;;;5032556;28;20176;-48
2022/04/02 13:11:40;;;;;;;5.18;2.85;;;6.40;99.90;;;;;;5032204;28;20533;-48